Terminal Aerodrome Forecast
Issued by NWS

Home | Current Version | Previous Version | Text Only | Print | Product List | Glossary Off
Versions: 1 2 3 4 5 6 7 8 9 10 11 12 13 14 15 16

000
FTUS43 KIWX 121700
TAFSBN
TAF
KSBN 121721Z 1218/1318 20014G20KT P6SM OVC020
      TEMPO 1218/1219 5SM -RA BR OVC010
     FM122000 20008KT P6SM SCT015 BKN070
     FM130800 24008KT 4SM TSRA BKN015 OVC030CB
     FM131200 26007KT P6SM OVC015
     FM131500 28008KT P6SM SCT020=

USA.gov is the U.S. government's official web portal to all federal, state and local government web resources and services.